createdAt,value
2022-11-05T00:00:33.559Z,3.28
2022-11-05T00:03:19.068Z,3.25
2022-11-05T00:06:05.259Z,3.65
2022-11-05T00:08:50.759Z,3.70
2022-11-05T00:11:18.468Z,3.63
2022-11-05T00:14:03.969Z,3.63
2022-11-05T00:16:45.917Z,3.35
2022-11-05T00:19:13.538Z,4.53
2022-11-05T00:21:59.017Z,4.05
2022-11-05T00:24:44.409Z,4.40
2022-11-05T00:27:11.451Z,4.88
2022-11-05T00:29:38.467Z,4.93
2022-11-05T00:32:05.482Z,4.40
2022-11-05T00:34:32.493Z,3.85
2022-11-05T00:36:59.409Z,4.60
2022-11-05T00:39:26.432Z,4.95
2022-11-05T00:42:11.963Z,6.80
2022-11-05T00:44:57.333Z,5.25
2022-11-05T00:47:42.764Z,5.05
2022-11-05T00:50:10.814Z,5.88
2022-11-05T00:52:56.604Z,4.80
2022-11-05T00:55:40.570Z,5.07
2022-11-05T00:58:12.469Z,4.30
2022-11-05T01:00:41.315Z,5.25
2022-11-05T01:03:11.464Z,5.22
2022-11-05T01:05:40.350Z,4.88
2022-11-05T01:08:10.461Z,4.15
2022-11-05T01:10:45.014Z,5.43
2022-11-05T01:13:13.374Z,4.22
2022-11-05T01:15:40.659Z,4.30
2022-11-05T01:18:07.662Z,5.00
2022-11-05T01:20:34.725Z,6.55
2022-11-05T01:23:07.592Z,4.93
2022-11-05T01:25:39.223Z,5.38
2022-11-05T01:28:06.939Z,5.95
2022-11-05T01:30:33.905Z,5.40
2022-11-05T01:33:02.240Z,4.45
2022-11-05T01:35:29.369Z,4.43
2022-11-05T01:37:58.188Z,4.75
2022-11-05T01:40:25.379Z,3.40
2022-11-05T01:42:52.370Z,3.25
2022-11-05T01:45:24.555Z,3.90
2022-11-05T01:48:06.985Z,5.00
2022-11-05T01:50:55.619Z,4.22
2022-11-05T01:53:38.933Z,4.07
2022-11-05T01:56:07.426Z,4.70
2022-11-05T01:58:49.207Z,3.25
2022-11-05T02:01:16.423Z,4.82
2022-11-05T02:03:43.519Z,2.83
2022-11-05T02:06:10.521Z,3.40
2022-11-05T02:08:59.244Z,3.30
2022-11-05T02:11:26.416Z,3.22
2022-11-05T02:13:53.443Z,2.80
2022-11-05T02:16:52.980Z,3.22
2022-11-05T02:19:58.342Z,3.47
2022-11-05T02:25:35.390Z,2.90
2022-11-05T02:28:02.253Z,3.42
2022-11-05T02:30:35.135Z,2.88
2022-11-05T02:33:10.231Z,2.80
2022-11-05T02:36:09.144Z,3.20
2022-11-05T02:38:40.773Z,3.20
2022-11-05T02:41:10.625Z,3.35
2022-11-05T02:43:52.232Z,2.90
2022-11-05T02:46:31.091Z,2.67
2022-11-05T02:49:11.576Z,3.50
2022-11-05T02:51:57.294Z,3.20
2022-11-05T02:54:38.857Z,5.50
2022-11-05T02:57:05.884Z,3.15
2022-11-05T02:59:32.960Z,3.92
2022-11-05T03:02:00.175Z,3.25
2022-11-05T03:04:27.229Z,3.67
2022-11-05T03:07:03.248Z,3.72
2022-11-05T03:09:45.328Z,3.58
2022-11-05T03:12:18.380Z,3.40
2022-11-05T03:14:47.678Z,4.32
2022-11-05T03:17:43.723Z,3.90
2022-11-05T03:20:15.120Z,4.07
2022-11-05T03:22:58.464Z,3.10
2022-11-05T03:25:25.531Z,3.00
2022-11-05T03:27:56.110Z,3.88
2022-11-05T03:30:24.833Z,3.40
2022-11-05T03:32:59.312Z,3.35
2022-11-05T03:35:37.740Z,3.47
2022-11-05T03:38:08.197Z,3.53
2022-11-05T03:40:35.506Z,5.50
2022-11-05T03:43:03.905Z,3.17
2022-11-05T03:45:40.597Z,3.42
2022-11-05T03:48:08.196Z,4.78
2022-11-05T03:50:55.329Z,3.65
2022-11-05T03:53:27.039Z,3.92
2022-11-05T03:55:59.658Z,3.88
2022-11-05T03:58:26.625Z,3.70
2022-11-05T04:00:53.557Z,3.63
2022-11-05T04:03:20.575Z,5.07
2022-11-05T04:06:07.556Z,5.97
2022-11-05T04:08:53.039Z,4.00
2022-11-05T04:11:38.535Z,4.82
2022-11-05T04:14:05.572Z,4.28
2022-11-05T04:16:51.084Z,4.43
2022-11-05T04:19:38.146Z,3.70
2022-11-05T04:22:23.893Z,6.70
2022-11-05T04:24:50.876Z,4.78
2022-11-05T04:27:17.785Z,4.82
2022-11-05T04:30:03.454Z,5.25
2022-11-05T04:32:30.713Z,4.07
2022-11-05T04:34:57.721Z,4.70
2022-11-05T04:37:24.650Z,4.40
2022-11-05T04:39:51.576Z,5.32
2022-11-05T04:42:19.936Z,4.85
2022-11-05T04:44:46.949Z,7.10
2022-11-05T04:47:13.834Z,7.95
2022-11-05T04:49:40.927Z,7.65
2022-11-05T04:52:07.898Z,6.25
2022-11-05T04:54:34.870Z,6.07
2022-11-05T04:57:01.865Z,6.05
2022-11-05T04:59:28.927Z,6.63
2022-11-05T05:01:55.887Z,6.15
2022-11-05T05:04:22.950Z,6.75
2022-11-05T05:06:49.933Z,6.95
2022-11-05T05:09:16.922Z,7.07
2022-11-05T05:11:43.943Z,7.25
2022-11-05T05:14:10.985Z,8.10
2022-11-05T05:16:37.904Z,9.60
2022-11-05T05:19:05.116Z,7.43
2022-11-05T05:21:42.293Z,6.88
2022-11-05T05:24:14.032Z,8.18
2022-11-05T05:26:43.629Z,7.55
2022-11-05T05:29:10.813Z,6.72
2022-11-05T05:31:37.986Z,7.00
2022-11-05T05:34:05.438Z,8.88
2022-11-05T05:36:32.450Z,7.93
2022-11-05T05:38:59.514Z,7.70
2022-11-05T05:41:26.474Z,7.47
2022-11-05T05:43:53.469Z,8.10
2022-11-05T05:46:20.490Z,7.57
2022-11-05T05:48:51.243Z,8.50
2022-11-05T05:51:18.478Z,9.23
2022-11-05T05:53:45.513Z,8.88
2022-11-05T05:56:15.465Z,8.57
2022-11-05T05:58:42.518Z,8.95
2022-11-05T06:01:18.237Z,8.35
2022-11-05T06:03:46.692Z,9.18
2022-11-05T06:06:14.090Z,7.90
2022-11-05T06:08:41.506Z,7.85
2022-11-05T06:11:08.672Z,8.70
2022-11-05T06:13:36.173Z,6.95
2022-11-05T06:16:07.298Z,7.20
2022-11-05T06:18:34.401Z,6.28
2022-11-05T06:21:02.929Z,6.95
2022-11-05T06:23:32.104Z,7.10
2022-11-05T06:26:03.706Z,6.55
2022-11-05T06:28:30.765Z,7.60
2022-11-05T06:30:57.913Z,6.47
2022-11-05T06:33:25.156Z,8.20
2022-11-05T06:35:52.939Z,8.68
2022-11-05T06:38:19.872Z,6.30
2022-11-05T06:40:46.814Z,5.88
2022-11-05T06:43:14.298Z,5.63
2022-11-05T06:45:41.690Z,7.68
2022-11-05T06:48:08.701Z,4.93
2022-11-05T06:50:35.887Z,7.82
2022-11-05T06:53:03.796Z,5.85
2022-11-05T06:55:31.450Z,8.48
2022-11-05T06:57:59.436Z,7.78
2022-11-05T07:00:26.452Z,6.60
2022-11-05T07:02:55.800Z,8.52
2022-11-05T07:05:24.280Z,8.90
2022-11-05T07:07:51.262Z,8.65
2022-11-05T07:10:18.553Z,9.25
2022-11-05T07:12:45.715Z,6.95
2022-11-05T07:15:12.866Z,9.05
2022-11-05T07:17:40.266Z,7.45
2022-11-05T07:20:08.001Z,9.10
2022-11-05T07:22:35.460Z,7.22
2022-11-05T07:25:02.732Z,7.85
2022-11-05T07:27:29.676Z,8.30
2022-11-05T07:29:56.634Z,8.02
2022-11-05T07:32:26.718Z,7.43
2022-11-05T07:34:53.665Z,9.43
2022-11-05T07:37:20.709Z,8.25
2022-11-05T07:39:47.637Z,6.22
2022-11-05T07:42:14.637Z,7.65
2022-11-05T07:44:41.805Z,7.50
2022-11-05T07:47:11.438Z,7.35
2022-11-05T07:49:38.448Z,4.70
2022-11-05T07:52:05.552Z,5.30
2022-11-05T07:54:32.604Z,5.40
2022-11-05T07:56:59.630Z,5.47
2022-11-05T07:59:26.712Z,7.28
2022-11-05T08:01:54.893Z,5.93
2022-11-05T08:04:22.028Z,5.80
2022-11-05T08:06:49.005Z,5.90
2022-11-05T08:09:16.029Z,8.07
2022-11-05T08:11:43.096Z,6.93
2022-11-05T08:14:10.052Z,7.55
2022-11-05T08:16:36.998Z,10.02
2022-11-05T08:19:04.733Z,8.23
2022-11-05T08:21:31.928Z,6.85
2022-11-05T08:23:59.522Z,5.10
2022-11-05T08:26:26.903Z,8.68
2022-11-05T08:28:54.042Z,6.50
2022-11-05T08:31:21.018Z,6.57
2022-11-05T08:33:48.020Z,7.68
2022-11-05T08:36:17.942Z,10.40
2022-11-05T08:38:45.151Z,5.97
2022-11-05T08:41:12.172Z,6.32
2022-11-05T08:43:42.215Z,7.57
2022-11-05T08:46:09.320Z,6.78
2022-11-05T08:48:36.337Z,7.05
2022-11-05T08:51:03.324Z,8.88
2022-11-05T08:53:30.386Z,7.43
2022-11-05T08:56:00.644Z,7.88
2022-11-05T08:58:27.885Z,7.68
2022-11-05T09:00:59.034Z,7.05
2022-11-05T09:03:29.131Z,9.45
2022-11-05T09:05:56.352Z,8.23
2022-11-05T09:08:23.480Z,9.15
2022-11-05T09:10:50.649Z,9.57
2022-11-05T09:13:19.904Z,8.27
2022-11-05T09:15:50.893Z,10.52
2022-11-05T09:18:18.245Z,8.45
2022-11-05T09:20:45.319Z,9.93
2022-11-05T09:23:15.028Z,8.43
2022-11-05T09:25:42.856Z,10.13
2022-11-05T09:28:20.960Z,8.15
2022-11-05T09:30:49.623Z,8.45
2022-11-05T09:33:19.970Z,8.18
2022-11-05T09:35:47.690Z,8.98
2022-11-05T09:38:14.854Z,8.32
2022-11-05T09:40:56.524Z,10.27
2022-11-05T09:43:31.507Z,8.38
2022-11-05T09:46:00.470Z,8.98
2022-11-05T09:48:29.054Z,8.68
2022-11-05T09:50:56.456Z,9.23
2022-11-05T09:53:23.656Z,9.75
2022-11-05T09:55:55.578Z,11.82
2022-11-05T09:58:43.702Z,9.90
2022-11-05T10:01:17.573Z,9.07
2022-11-05T10:03:46.639Z,11.75
2022-11-05T10:06:18.545Z,13.98
2022-11-05T10:08:46.894Z,9.18
2022-11-05T10:11:23.798Z,9.80
2022-11-05T10:13:57.884Z,9.55
2022-11-05T10:16:35.463Z,10.90
2022-11-05T10:19:06.944Z,12.15
2022-11-05T10:22:04.461Z,10.57
2022-11-05T10:24:21.464Z,12.27
2022-11-05T10:26:50.776Z,11.05
2022-11-05T10:29:29.435Z,10.95
2022-11-05T10:31:57.680Z,14.10
2022-11-05T10:34:27.771Z,11.07
2022-11-05T10:36:54.891Z,10.85
2022-11-05T10:39:22.332Z,10.50
2022-11-05T10:42:20.193Z,11.70
2022-11-05T10:45:07.930Z,9.23
2022-11-05T10:47:56.767Z,10.02
2022-11-05T10:50:25.512Z,11.88
2022-11-05T10:52:56.144Z,11.68
2022-11-05T10:55:28.429Z,13.65
2022-11-05T10:57:57.124Z,15.07
2022-11-05T11:00:25.450Z,12.93
2022-11-05T11:02:58.097Z,13.80
2022-11-05T11:05:33.459Z,13.65
2022-11-05T11:08:12.325Z,14.45
2022-11-05T11:10:50.340Z,14.05
2022-11-05T11:13:26.528Z,15.55
2022-11-05T11:15:53.636Z,15.18
2022-11-05T11:18:32.418Z,16.25
2022-11-05T11:21:19.646Z,17.80
2022-11-05T11:23:55.900Z,17.97
2022-11-05T11:26:27.436Z,18.52
2022-11-05T11:28:57.217Z,18.85
2022-11-05T11:31:25.529Z,19.52
2022-11-05T11:34:00.320Z,22.80
2022-11-05T11:36:44.603Z,21.45
2022-11-05T11:39:18.731Z,16.80
2022-11-05T11:44:18.509Z,18.27
2022-11-05T11:46:52.466Z,23.20
2022-11-05T11:49:41.370Z,19.75
2022-11-05T11:52:15.405Z,18.27
2022-11-05T11:54:42.618Z,17.23
2022-11-05T11:57:28.455Z,18.10
2022-11-05T12:00:11.544Z,17.17
2022-11-05T12:03:02.075Z,16.88
2022-11-05T12:05:43.755Z,17.58
2022-11-05T12:08:36.266Z,18.83
2022-11-05T12:11:16.168Z,19.58
2022-11-05T12:14:10.206Z,22.75
2022-11-05T12:16:53.044Z,20.70
2022-11-05T12:19:43.195Z,23.45
2022-11-05T12:22:33.057Z,20.67
2022-11-05T12:25:09.328Z,25.20
2022-11-05T12:27:52.648Z,24.40
2022-11-05T12:30:21.067Z,26.25
2022-11-05T12:33:10.283Z,24.75
2022-11-05T12:35:47.552Z,30.13
2022-11-05T12:38:53.161Z,23.42
2022-11-05T12:41:42.154Z,18.85
2022-11-05T12:44:14.579Z,18.35
2022-11-05T12:46:48.479Z,25.95
2022-11-05T12:49:44.295Z,23.83
2022-11-05T12:52:42.855Z,22.75
2022-11-05T12:55:13.726Z,21.05
2022-11-05T12:57:44.360Z,20.83
2022-11-05T13:00:22.210Z,18.85
2022-11-05T13:02:55.010Z,20.92
2022-11-05T13:05:23.112Z,19.48
2022-11-05T13:08:05.175Z,19.17
2022-11-05T13:10:42.710Z,19.15
2022-11-05T13:13:34.232Z,18.05
2022-11-05T13:16:24.628Z,18.90
2022-11-05T13:19:00.574Z,17.02
2022-11-05T13:21:29.138Z,17.05
2022-11-05T13:24:15.306Z,17.02
2022-11-05T13:26:42.268Z,17.10
2022-11-05T13:29:26.794Z,16.38
2022-11-05T13:31:57.933Z,19.17
2022-11-05T13:34:24.960Z,22.95
2022-11-05T13:37:13.738Z,17.95
2022-11-05T13:39:58.631Z,15.77
2022-11-05T13:42:53.424Z,17.00
2022-11-05T13:45:29.603Z,18.42
2022-11-05T13:48:15.062Z,18.52
2022-11-05T13:51:03.380Z,17.70
2022-11-05T13:53:41.114Z,22.13
2022-11-05T13:56:36.517Z,20.25
2022-11-05T13:59:34.362Z,19.88
2022-11-05T14:02:03.723Z,17.95
2022-11-05T14:04:35.124Z,18.98
2022-11-05T14:07:12.881Z,21.85
2022-11-05T14:09:40.094Z,22.85
2022-11-05T14:12:14.191Z,24.98
2022-11-05T14:14:46.172Z,20.83
2022-11-05T14:17:15.803Z,19.98
2022-11-05T14:20:08.562Z,24.17
2022-11-05T14:22:37.984Z,21.83
2022-11-05T14:25:19.861Z,20.77
2022-11-05T14:27:48.705Z,23.17
2022-11-05T14:30:45.861Z,23.50
2022-11-05T14:33:26.593Z,22.33
2022-11-05T14:36:23.747Z,25.95
2022-11-05T14:38:57.753Z,26.25
2022-11-05T14:41:27.102Z,24.85
2022-11-05T14:44:01.486Z,23.75
2022-11-05T14:46:45.982Z,26.42
2022-11-05T14:49:17.690Z,25.75
2022-11-05T14:51:45.827Z,25.13
2022-11-05T14:54:27.838Z,27.88
2022-11-05T14:56:59.449Z,26.15
2022-11-05T14:59:29.138Z,22.27
2022-11-05T15:01:57.160Z,20.77
2022-11-05T15:04:27.461Z,25.58
2022-11-05T15:07:13.734Z,21.02
2022-11-05T15:09:47.671Z,19.00
2022-11-05T15:12:41.228Z,20.40
2022-11-05T15:15:23.570Z,20.52
2022-11-05T15:18:05.894Z,17.75
2022-11-05T15:20:39.784Z,21.65
2022-11-05T15:23:09.530Z,20.25
2022-11-05T15:25:52.771Z,18.23
2022-11-05T15:28:29.324Z,17.67
2022-11-05T15:31:16.824Z,17.75
2022-11-05T15:33:47.869Z,19.42
2022-11-05T15:36:22.863Z,23.05
2022-11-05T15:39:42.478Z,27.40
2022-11-05T15:42:23.608Z,27.40
2022-11-05T15:45:24.018Z,21.17
2022-11-05T15:47:51.132Z,18.33
2022-11-05T15:50:21.418Z,16.98
2022-11-05T15:55:54.825Z,16.90
2022-11-05T15:58:21.817Z,20.10
2022-11-05T16:00:49.015Z,15.93
2022-11-05T16:03:30.886Z,15.65
2022-11-05T16:05:57.953Z,14.50
2022-11-05T16:11:09.678Z,15.82
2022-11-05T16:13:50.404Z,18.73
2022-11-05T16:16:19.236Z,17.52
2022-11-05T16:18:46.208Z,17.25
2022-11-05T16:21:25.725Z,19.92
2022-11-05T16:24:01.387Z,20.85
2022-11-05T16:27:02.346Z,21.10
2022-11-05T16:29:46.459Z,19.02
2022-11-05T16:32:17.749Z,16.83
2022-11-05T16:38:02.502Z,19.95
2022-11-05T16:40:30.721Z,89.35
2022-11-05T16:43:17.362Z,24.65
2022-11-05T16:45:44.446Z,24.00
2022-11-05T16:48:12.403Z,28.67
2022-11-05T16:50:39.861Z,31.95
2022-11-05T16:53:06.933Z,28.02
2022-11-05T16:55:34.727Z,28.60
2022-11-05T16:58:01.815Z,30.27
2022-11-05T17:00:28.804Z,28.63
2022-11-05T17:02:55.893Z,24.33
2022-11-05T17:05:30.527Z,20.85
2022-11-05T17:07:57.774Z,21.48
2022-11-05T17:10:25.326Z,24.48
2022-11-05T17:12:52.564Z,26.80
2022-11-05T17:15:21.888Z,26.75
2022-11-05T17:17:49.650Z,27.40
2022-11-05T17:20:40.739Z,25.83
2022-11-05T17:23:12.986Z,25.00
2022-11-05T17:25:42.101Z,27.17
2022-11-05T17:28:09.413Z,28.10
2022-11-05T17:30:36.955Z,27.30
2022-11-05T17:33:04.415Z,28.77
2022-11-05T17:35:31.481Z,55.95
2022-11-05T17:37:58.642Z,41.63
2022-11-05T17:40:28.382Z,38.35
2022-11-05T17:42:55.404Z,32.22
2022-11-05T17:45:22.362Z,31.88
2022-11-05T17:47:49.325Z,31.63
2022-11-05T17:50:16.508Z,35.22
2022-11-05T17:52:43.727Z,33.20
2022-11-05T17:55:17.504Z,37.08
2022-11-05T17:57:45.910Z,32.20
2022-11-05T18:00:13.906Z,36.45
2022-11-05T18:02:40.928Z,34.83
2022-11-05T18:05:11.068Z,40.85
2022-11-05T18:07:38.121Z,34.85
2022-11-05T18:10:06.629Z,36.78
2022-11-05T18:12:34.013Z,38.47
2022-11-05T18:15:03.629Z,36.47
2022-11-05T18:17:30.719Z,37.38
2022-11-05T18:19:57.756Z,37.45
2022-11-05T18:22:26.600Z,39.42
2022-11-05T18:24:54.720Z,39.88
2022-11-05T18:27:24.589Z,45.45
2022-11-05T18:29:51.752Z,39.60
2022-11-05T18:32:18.789Z,39.92
2022-11-05T18:34:45.814Z,42.97
2022-11-05T18:37:12.802Z,45.05
2022-11-05T18:39:39.937Z,39.53
2022-11-05T18:42:06.943Z,41.63
2022-11-05T18:44:39.010Z,39.20
2022-11-05T18:47:06.971Z,39.22
2022-11-05T18:49:34.042Z,36.05
2022-11-05T18:52:01.065Z,52.28
2022-11-05T18:54:30.834Z,43.88
2022-11-05T18:56:57.843Z,42.22
2022-11-05T18:59:42.463Z,39.80
2022-11-05T19:02:11.251Z,40.50
2022-11-05T19:04:39.567Z,37.83
2022-11-05T19:07:07.041Z,44.40
2022-11-05T19:09:34.579Z,44.53
2022-11-05T19:12:02.154Z,41.65
2022-11-05T19:14:31.818Z,40.22
2022-11-05T19:16:59.071Z,47.50
2022-11-05T19:19:26.138Z,45.33
2022-11-05T19:21:53.191Z,42.83
2022-11-05T19:24:20.277Z,38.80
2022-11-05T19:26:48.071Z,38.17
2022-11-05T19:29:15.229Z,45.13
2022-11-05T19:31:42.342Z,38.67
2022-11-05T19:34:09.388Z,40.17
2022-11-05T19:36:36.382Z,36.90
2022-11-05T19:39:06.371Z,38.15
2022-11-05T19:41:34.606Z,40.13
2022-11-05T19:44:02.653Z,36.83
2022-11-05T19:46:29.941Z,40.17
2022-11-05T19:48:56.962Z,46.53
2022-11-05T19:51:27.661Z,52.20
2022-11-05T19:53:56.339Z,49.55
2022-11-05T19:56:28.507Z,47.30
2022-11-05T19:58:55.823Z,41.90
2022-11-05T20:01:23.603Z,45.05
2022-11-05T20:03:50.978Z,51.40
2022-11-05T20:06:22.727Z,51.05
2022-11-05T20:11:40.060Z,53.45
2022-11-05T20:14:07.812Z,47.45
2022-11-05T20:16:38.195Z,47.15
2022-11-05T20:19:06.622Z,52.75
2022-11-05T20:21:34.529Z,49.83
2022-11-05T20:24:01.565Z,52.13
2022-11-05T20:26:28.671Z,46.42
2022-11-05T20:28:56.060Z,47.78
2022-11-05T20:31:23.151Z,43.05
2022-11-05T20:33:50.177Z,40.60
2022-11-05T20:36:18.822Z,40.65
2022-11-05T20:38:49.789Z,41.25
2022-11-05T20:41:16.867Z,41.08
2022-11-05T20:43:44.120Z,40.53
2022-11-05T20:46:15.328Z,45.50
2022-11-05T20:48:42.874Z,41.40
2022-11-05T20:51:11.417Z,44.97
2022-11-05T20:53:38.488Z,42.80
2022-11-05T20:56:08.574Z,42.25
2022-11-05T20:58:36.702Z,39.75
2022-11-05T21:01:04.277Z,42.85
2022-11-05T21:03:31.462Z,38.50
2022-11-05T21:06:00.017Z,43.80
2022-11-05T21:08:27.566Z,45.28
2022-11-05T21:10:55.053Z,40.67
2022-11-05T21:13:24.576Z,42.25
2022-11-05T21:15:53.380Z,42.17
2022-11-05T21:18:22.868Z,38.72
2022-11-05T21:20:51.380Z,37.03
2022-11-05T21:23:18.334Z,39.13
2022-11-05T21:25:45.343Z,43.92
2022-11-05T21:28:12.965Z,43.70
2022-11-05T21:30:45.469Z,44.08
2022-11-05T21:33:14.603Z,46.95
2022-11-05T21:35:44.080Z,45.17
2022-11-05T21:38:12.021Z,41.75
2022-11-05T21:40:41.186Z,44.63
2022-11-05T21:43:09.073Z,43.88
2022-11-05T21:45:38.840Z,45.35
2022-11-05T21:48:06.621Z,42.70
2022-11-05T21:50:52.109Z,43.28
2022-11-05T21:53:43.465Z,41.80
2022-11-05T21:56:42.909Z,43.17
2022-11-05T21:59:46.661Z,47.70
2022-11-05T22:02:24.846Z,39.63
2022-11-05T22:04:54.392Z,34.65
2022-11-05T22:07:23.069Z,35.53
2022-11-05T22:09:53.104Z,43.60
2022-11-05T22:12:21.256Z,42.97
2022-11-05T22:14:51.589Z,38.00
2022-11-05T22:17:18.998Z,41.05
2022-11-05T22:19:54.954Z,39.80
2022-11-05T22:22:25.041Z,38.45
2022-11-05T22:24:52.118Z,36.55
2022-11-05T22:27:22.389Z,40.05
2022-11-05T22:29:49.686Z,38.50
2022-11-05T22:32:19.638Z,47.28
2022-11-05T22:34:48.310Z,41.28
2022-11-05T22:37:15.506Z,40.70
2022-11-05T22:39:42.502Z,40.45
2022-11-05T22:42:10.094Z,39.08
2022-11-05T22:44:37.300Z,41.20
2022-11-05T22:47:07.803Z,35.05
2022-11-05T22:49:34.859Z,32.83
2022-11-05T22:52:05.166Z,32.92
2022-11-05T22:54:37.922Z,34.25
2022-11-05T22:57:08.453Z,34.88
2022-11-05T22:59:37.455Z,36.72
2022-11-05T23:02:09.401Z,30.92
2022-11-05T23:04:39.100Z,35.70
2022-11-05T23:07:27.616Z,33.85
2022-11-05T23:10:14.905Z,34.47
2022-11-05T23:12:46.633Z,34.05
2022-11-05T23:15:34.176Z,32.15
2022-11-05T23:18:20.182Z,35.53
2022-11-05T23:21:07.606Z,35.13
2022-11-05T23:23:56.369Z,36.63
2022-11-05T23:26:42.083Z,35.72
2022-11-05T23:29:09.077Z,34.00
2022-11-05T23:31:56.544Z,37.20
2022-11-05T23:34:26.067Z,32.03
2022-11-05T23:37:26.802Z,34.47
2022-11-05T23:39:53.905Z,33.47
2022-11-05T23:42:39.774Z,34.20
2022-11-05T23:45:27.354Z,34.25
2022-11-05T23:48:13.156Z,34.92
2022-11-05T23:50:43.211Z,32.20
2022-11-05T23:53:12.435Z,30.15
2022-11-05T23:55:42.454Z,32.88
2022-11-05T23:58:09.687Z,32.30
